createdAt,value
2018-03-08T00:00:47.081Z,1007.36
2018-03-08T00:01:47.077Z,1007.34
2018-03-08T00:02:47.098Z,1007.37
2018-03-08T00:03:47.097Z,1007.31
2018-03-08T00:04:47.096Z,1007.32
2018-03-08T00:05:47.090Z,1007.35
2018-03-08T00:06:47.113Z,1007.4
2018-03-08T00:07:47.087Z,1007.41
2018-03-08T00:08:47.116Z,1007.37
2018-03-08T00:09:47.109Z,1007.37
2018-03-08T00:10:47.106Z,1007.41
2018-03-08T00:11:47.103Z,1007.42
2018-03-08T00:12:47.100Z,1007.44
2018-03-08T00:13:47.109Z,1007.48
2018-03-08T00:14:47.101Z,1007.46
2018-03-08T00:15:47.104Z,1007.46
2018-03-08T00:16:47.111Z,1007.49
2018-03-08T00:17:47.262Z,1007.47
2018-03-08T00:18:47.120Z,1007.52
2018-03-08T00:19:47.124Z,1007.5
2018-03-08T00:20:47.136Z,1007.49
2018-03-08T00:21:47.136Z,1007.62
2018-03-08T00:22:47.167Z,1007.55
2018-03-08T00:23:47.144Z,1007.58
2018-03-08T00:24:47.166Z,1007.56
2018-03-08T00:25:47.153Z,1007.57
2018-03-08T00:26:47.148Z,1007.61
2018-03-08T00:27:47.153Z,1007.63
2018-03-08T00:28:47.174Z,1007.63
2018-03-08T00:29:47.169Z,1007.68
2018-03-08T00:30:47.166Z,1007.62
2018-03-08T00:31:47.163Z,1007.67
2018-03-08T00:32:47.345Z,1007.65
2018-03-08T00:33:47.448Z,1007.69
2018-03-08T00:34:47.190Z,1007.68
2018-03-08T00:35:47.191Z,1007.65
2018-03-08T00:36:47.191Z,1007.72
2018-03-08T00:37:47.195Z,1007.7
2018-03-08T00:38:47.217Z,1007.71
2018-03-08T00:39:47.209Z,1007.73
2018-03-08T00:40:47.203Z,1007.81
2018-03-08T00:41:47.228Z,1007.75
2018-03-08T00:42:47.200Z,1007.76
2018-03-08T00:43:47.245Z,1007.83
2018-03-08T00:44:47.236Z,1007.81
2018-03-08T00:45:47.485Z,1007.81
2018-03-08T00:46:47.206Z,1007.82
2018-03-08T00:47:47.209Z,1007.83
2018-03-08T00:48:47.257Z,1007.82
2018-03-08T00:49:47.217Z,1007.78
2018-03-08T00:50:47.249Z,1007.79
2018-03-08T00:51:47.222Z,1007.86
2018-03-08T00:52:47.271Z,1007.78
2018-03-08T00:53:47.231Z,1007.83
2018-03-08T00:54:47.235Z,1007.85
2018-03-08T00:55:47.230Z,1007.79
2018-03-08T00:56:47.256Z,1007.85
2018-03-08T00:57:47.225Z,1007.84
2018-03-08T00:58:47.233Z,1007.83
2018-03-08T00:59:47.235Z,1007.85
2018-03-08T01:00:47.239Z,1007.89
2018-03-08T01:01:47.251Z,1007.93
2018-03-08T01:02:47.482Z,1007.94
2018-03-08T01:03:47.261Z,1007.96
2018-03-08T01:04:47.249Z,1007.96
2018-03-08T01:05:47.251Z,1008
2018-03-08T01:06:47.532Z,1007.99
2018-03-08T01:07:47.266Z,1008.03
2018-03-08T01:08:47.264Z,1008.02
2018-03-08T01:09:47.273Z,1008.05
2018-03-08T01:10:47.271Z,1008.05
2018-03-08T01:11:47.273Z,1008.05
2018-03-08T01:12:48.524Z,1008.04
2018-03-08T01:13:47.273Z,1008.03
2018-03-08T01:14:47.279Z,1008.04
2018-03-08T01:15:47.280Z,1008.04
2018-03-08T01:16:47.293Z,1008.05
2018-03-08T01:17:47.323Z,1008.04
2018-03-08T01:18:47.297Z,1008.07
2018-03-08T01:19:47.298Z,1008.06
2018-03-08T01:20:47.299Z,1008.05
2018-03-08T01:21:47.304Z,1008.08
2018-03-08T01:22:47.330Z,1008.09
2018-03-08T01:23:47.309Z,1008.09
2018-03-08T01:24:47.330Z,1008.1
2018-03-08T01:25:47.312Z,1008.09
2018-03-08T01:26:47.316Z,1008.05
2018-03-08T01:27:47.316Z,1008.07
2018-03-08T01:28:47.333Z,1008.11
2018-03-08T01:29:47.338Z,1008.07
2018-03-08T01:30:47.344Z,1008.1
2018-03-08T01:32:47.370Z,1008.13
2018-03-08T01:33:47.352Z,1008.08
2018-03-08T01:34:47.374Z,1008.14
2018-03-08T01:35:48.374Z,1008.07
2018-03-08T01:36:47.364Z,1008.1
2018-03-08T01:37:47.374Z,1008.14
2018-03-08T01:38:47.667Z,1008.16
2018-03-08T01:39:47.500Z,1008.16
2018-03-08T01:40:47.392Z,1008.17
2018-03-08T01:41:47.401Z,1008.15
2018-03-08T01:42:47.398Z,1008.13
2018-03-08T01:43:47.560Z,1008.12
2018-03-08T01:44:47.406Z,1008.16
2018-03-08T01:45:47.411Z,1008.17
2018-03-08T01:46:47.417Z,1008.15
2018-03-08T01:47:47.434Z,1008.17
2018-03-08T01:48:47.449Z,1008.17
2018-03-08T01:49:47.447Z,1008.15
2018-03-08T01:50:47.437Z,1008.21
2018-03-08T01:51:47.449Z,1008.23
2018-03-08T01:52:47.452Z,1008.22
2018-03-08T01:53:47.458Z,1008.21
2018-03-08T01:54:47.458Z,1008.21
2018-03-08T01:55:47.463Z,1008.2
2018-03-08T01:56:47.472Z,1008.23
2018-03-08T01:57:47.478Z,1008.21
2018-03-08T01:58:47.474Z,1008.22
2018-03-08T01:59:47.480Z,1008.18
2018-03-08T02:00:47.480Z,1008.21
2018-03-08T02:01:47.504Z,1008.18
2018-03-08T02:02:47.482Z,1008.18
2018-03-08T02:03:47.617Z,1008.21
2018-03-08T02:04:47.513Z,1008.17
2018-03-08T02:05:47.499Z,1008.22
2018-03-08T02:06:47.490Z,1008.27
2018-03-08T02:07:47.508Z,1008.29
2018-03-08T02:08:47.509Z,1008.3
2018-03-08T02:09:47.522Z,1008.27
2018-03-08T02:10:47.503Z,1008.28
2018-03-08T02:11:47.506Z,1008.3
2018-03-08T02:12:47.505Z,1008.3
2018-03-08T02:13:47.510Z,1008.35
2018-03-08T02:14:47.825Z,1008.33
2018-03-08T02:15:47.520Z,1008.4
2018-03-08T02:16:47.532Z,1008.34
2018-03-08T02:17:47.523Z,1008.39
2018-03-08T02:18:47.536Z,1008.39
2018-03-08T02:19:47.552Z,1008.36
2018-03-08T02:20:47.534Z,1008.39
2018-03-08T02:21:47.544Z,1008.46
2018-03-08T02:22:47.570Z,1008.39
2018-03-08T02:23:47.543Z,1008.46
2018-03-08T02:24:47.766Z,1008.45
2018-03-08T02:25:47.547Z,1008.42
2018-03-08T02:26:47.553Z,1008.42
2018-03-08T02:27:47.559Z,1008.43
2018-03-08T02:28:47.568Z,1008.43
2018-03-08T02:29:47.588Z,1008.45
2018-03-08T02:30:47.576Z,1008.49
2018-03-08T02:31:47.563Z,1008.45
2018-03-08T02:32:47.569Z,1008.47
2018-03-08T02:33:47.575Z,1008.48
2018-03-08T02:34:47.573Z,1008.5
2018-03-08T02:35:47.588Z,1008.47
2018-03-08T02:36:47.580Z,1008.48
2018-03-08T02:37:47.586Z,1008.48
2018-03-08T02:38:47.587Z,1008.47
2018-03-08T02:39:47.588Z,1008.52
2018-03-08T02:40:47.653Z,1008.49
2018-03-08T02:41:47.614Z,1008.53
2018-03-08T02:42:47.596Z,1008.53
2018-03-08T02:43:47.605Z,1008.53
2018-03-08T02:44:47.597Z,1008.59
2018-03-08T02:45:47.602Z,1008.58
2018-03-08T02:46:47.643Z,1008.59
2018-03-08T02:47:47.673Z,1008.62
2018-03-08T02:48:47.632Z,1008.65
2018-03-08T02:49:47.621Z,1008.67
2018-03-08T02:50:47.675Z,1008.65
2018-03-08T02:51:47.653Z,1008.68
2018-03-08T02:52:47.645Z,1008.65
2018-03-08T02:53:47.746Z,1008.65
2018-03-08T02:54:47.734Z,1008.68
2018-03-08T02:55:47.653Z,1008.66
2018-03-08T02:56:47.653Z,1008.67
2018-03-08T02:57:47.772Z,1008.65
2018-03-08T02:58:47.664Z,1008.73
2018-03-08T02:59:47.702Z,1008.7
2018-03-08T03:00:47.660Z,1008.72
2018-03-08T03:01:47.673Z,1008.69
2018-03-08T03:02:47.674Z,1008.73
2018-03-08T03:03:47.672Z,1008.75
2018-03-08T03:04:47.701Z,1008.74
2018-03-08T03:05:47.680Z,1008.76
2018-03-08T03:06:47.675Z,1008.7
2018-03-08T03:07:47.686Z,1008.72
2018-03-08T03:08:47.696Z,1008.73
2018-03-08T03:09:47.786Z,1008.73
2018-03-08T03:10:47.717Z,1008.74
2018-03-08T03:11:47.692Z,1008.72
2018-03-08T03:12:47.718Z,1008.73
2018-03-08T03:13:47.700Z,1008.73
2018-03-08T03:14:47.708Z,1008.7
2018-03-08T03:15:47.976Z,1008.72
2018-03-08T03:16:47.713Z,1008.7
2018-03-08T03:17:47.721Z,1008.71
2018-03-08T03:18:47.731Z,1008.75
2018-03-08T03:19:47.729Z,1008.76
2018-03-08T03:20:47.776Z,1008.75
2018-03-08T03:21:47.729Z,1008.74
2018-03-08T03:22:47.743Z,1008.72
2018-03-08T03:23:47.737Z,1008.76
2018-03-08T03:24:47.735Z,1008.73
2018-03-08T03:25:47.769Z,1008.74
2018-03-08T03:26:47.747Z,1008.77
2018-03-08T03:27:47.740Z,1008.8
2018-03-08T03:28:47.744Z,1008.83
2018-03-08T03:29:47.749Z,1008.77
2018-03-08T03:30:47.770Z,1008.77
2018-03-08T03:31:47.757Z,1008.73
2018-03-08T03:32:47.769Z,1008.71
2018-03-08T03:33:47.778Z,1008.75
2018-03-08T03:34:47.756Z,1008.74
2018-03-08T03:35:47.781Z,1008.78
2018-03-08T03:36:47.782Z,1008.78
2018-03-08T03:37:47.786Z,1008.74
2018-03-08T03:38:47.780Z,1008.79
2018-03-08T03:39:47.784Z,1008.78
2018-03-08T03:40:47.780Z,1008.77
2018-03-08T03:41:48.060Z,1008.74
2018-03-08T03:42:47.795Z,1008.75
2018-03-08T03:43:47.784Z,1008.74
2018-03-08T03:44:47.787Z,1008.76
2018-03-08T03:45:47.799Z,1008.73
2018-03-08T03:46:47.868Z,1008.74
2018-03-08T03:47:47.806Z,1008.73
2018-03-08T03:48:47.812Z,1008.7
2018-03-08T03:49:47.816Z,1008.77
2018-03-08T03:50:47.816Z,1008.82
2018-03-08T03:51:47.837Z,1008.83
2018-03-08T03:52:47.828Z,1008.84
2018-03-08T03:53:47.825Z,1008.83
2018-03-08T03:54:47.830Z,1008.8
2018-03-08T03:55:47.826Z,1008.83
2018-03-08T03:56:47.819Z,1008.83
2018-03-08T03:57:47.822Z,1008.9
2018-03-08T03:58:47.836Z,1008.88
2018-03-08T03:59:47.843Z,1008.9
2018-03-08T04:00:47.858Z,1008.86
2018-03-08T04:01:47.851Z,1008.89
2018-03-08T04:02:47.842Z,1008.96
2018-03-08T04:03:47.851Z,1008.97
2018-03-08T04:04:47.845Z,1008.92
2018-03-08T04:05:47.852Z,1008.95
2018-03-08T04:06:47.856Z,1008.96
2018-03-08T04:07:47.870Z,1008.96
2018-03-08T04:08:47.859Z,1008.95
2018-03-08T04:09:47.893Z,1009
2018-03-08T04:10:47.890Z,1008.99
2018-03-08T04:11:47.871Z,1009.01
2018-03-08T04:12:47.879Z,1008.97
2018-03-08T04:13:47.874Z,1008.99
2018-03-08T04:14:47.899Z,1008.98
2018-03-08T04:15:47.881Z,1008.99
2018-03-08T04:16:47.890Z,1008.96
2018-03-08T04:17:47.922Z,1008.97
2018-03-08T04:18:47.912Z,1009.01
2018-03-08T04:19:47.907Z,1008.99
2018-03-08T04:20:47.923Z,1009.04
2018-03-08T04:21:47.909Z,1009.07
2018-03-08T04:22:47.928Z,1009.06
2018-03-08T04:23:47.920Z,1009.1
2018-03-08T04:24:47.917Z,1009.08
2018-03-08T04:25:47.950Z,1009.08
2018-03-08T04:26:47.930Z,1009.06
2018-03-08T04:27:47.933Z,1009.05
2018-03-08T04:28:47.954Z,1009.07
2018-03-08T04:29:47.944Z,1009.09
2018-03-08T04:30:47.935Z,1009.1
2018-03-08T04:31:48.207Z,1009.06
2018-03-08T04:32:47.948Z,1009.09
2018-03-08T04:33:47.954Z,1009.08
2018-03-08T04:34:47.956Z,1009.08
2018-03-08T04:35:47.973Z,1009.06
2018-03-08T04:36:47.977Z,1009.08
2018-03-08T04:37:47.958Z,1009.06
2018-03-08T04:38:47.956Z,1009.07
2018-03-08T04:39:47.964Z,1009.04
2018-03-08T04:40:47.962Z,1009.03
2018-03-08T04:41:47.980Z,1009.01
2018-03-08T04:42:47.999Z,1009.07
2018-03-08T04:43:48.010Z,1009.09
2018-03-08T04:44:47.977Z,1009.13
2018-03-08T04:45:47.976Z,1009.1
2018-03-08T04:46:47.996Z,1009.08
2018-03-08T04:47:48.003Z,1009.06
2018-03-08T04:48:47.992Z,1009.02
2018-03-08T04:49:47.992Z,1009.05
2018-03-08T04:50:47.984Z,1009.08
2018-03-08T04:51:47.990Z,1009.04
2018-03-08T04:52:47.986Z,1009.05
2018-03-08T04:53:47.992Z,1008.99
2018-03-08T04:54:47.987Z,1009.06
2018-03-08T04:55:47.993Z,1009
2018-03-08T04:56:47.993Z,1008.97
2018-03-08T04:57:48.000Z,1008.97
2018-03-08T04:58:48.035Z,1008.98
2018-03-08T04:59:48.006Z,1008.97
2018-03-08T05:00:48.011Z,1008.98
2018-03-08T05:01:48.043Z,1009.03
2018-03-08T05:02:48.018Z,1009.02
2018-03-08T05:03:48.061Z,1008.99
2018-03-08T05:04:48.034Z,1009
2018-03-08T05:05:48.028Z,1009
2018-03-08T05:06:48.048Z,1009.03
2018-03-08T05:07:48.037Z,1009.1
2018-03-08T05:08:48.065Z,1009.05
2018-03-08T05:09:48.050Z,1009.02
2018-03-08T05:10:48.050Z,1009.07
2018-03-08T05:11:48.060Z,1009.06
2018-03-08T05:12:48.065Z,1009.12
2018-03-08T05:13:48.328Z,1009.15
2018-03-08T05:14:48.115Z,1009.13
2018-03-08T05:15:48.078Z,1009.15
2018-03-08T05:16:48.090Z,1009.17
2018-03-08T05:17:48.075Z,1009.2
2018-03-08T05:18:48.102Z,1009.21
2018-03-08T05:19:48.095Z,1009.15
2018-03-08T05:20:48.078Z,1009.24
2018-03-08T05:21:48.074Z,1009.25
2018-03-08T05:22:48.082Z,1009.25
2018-03-08T05:23:48.127Z,1009.23
2018-03-08T05:24:48.088Z,1009.29
2018-03-08T05:25:48.081Z,1009.31
2018-03-08T05:26:48.087Z,1009.27
2018-03-08T05:27:48.085Z,1009.27
2018-03-08T05:28:48.098Z,1009.31
2018-03-08T05:29:48.094Z,1009.34
2018-03-08T05:30:48.098Z,1009.36
2018-03-08T05:31:48.094Z,1009.36
2018-03-08T05:32:48.108Z,1009.37
2018-03-08T05:33:48.110Z,1009.36
2018-03-08T05:34:48.395Z,1009.38
2018-03-08T05:35:48.136Z,1009.37
2018-03-08T05:36:48.136Z,1009.41
2018-03-08T05:37:48.144Z,1009.38
2018-03-08T05:38:48.138Z,1009.38
2018-03-08T05:39:48.159Z,1009.41
2018-03-08T05:40:48.132Z,1009.43
2018-03-08T05:41:48.133Z,1009.46
2018-03-08T05:42:48.147Z,1009.47
2018-03-08T05:43:48.149Z,1009.45
2018-03-08T05:44:48.171Z,1009.51
2018-03-08T05:45:48.154Z,1009.47
2018-03-08T05:46:48.161Z,1009.51
2018-03-08T05:47:48.170Z,1009.54
2018-03-08T05:48:48.151Z,1009.58
2018-03-08T05:49:48.169Z,1009.56
2018-03-08T05:50:48.176Z,1009.58
2018-03-08T05:51:48.161Z,1009.6
2018-03-08T05:52:48.171Z,1009.6
2018-03-08T05:53:48.162Z,1009.66
2018-03-08T05:54:48.156Z,1009.61
2018-03-08T05:55:48.184Z,1009.62
2018-03-08T05:56:48.170Z,1009.61
2018-03-08T05:57:48.166Z,1009.65
2018-03-08T05:58:48.176Z,1009.6
2018-03-08T05:59:48.171Z,1009.61
2018-03-08T06:00:48.303Z,1009.63
2018-03-08T06:01:48.175Z,1009.61
2018-03-08T06:02:48.185Z,1009.61
2018-03-08T06:03:48.185Z,1009.66
2018-03-08T06:04:48.181Z,1009.72
2018-03-08T06:05:48.184Z,1009.71
2018-03-08T06:06:48.191Z,1009.68
2018-03-08T06:07:48.190Z,1009.67
2018-03-08T06:08:48.195Z,1009.68
2018-03-08T06:09:48.202Z,1009.7
2018-03-08T06:10:48.211Z,1009.76
2018-03-08T06:11:48.199Z,1009.7
2018-03-08T06:12:48.237Z,1009.72
2018-03-08T06:13:48.220Z,1009.67
2018-03-08T06:14:48.230Z,1009.7
2018-03-08T06:15:48.242Z,1009.68
2018-03-08T06:16:48.243Z,1009.7
2018-03-08T06:17:48.223Z,1009.74
2018-03-08T06:18:48.223Z,1009.76
2018-03-08T06:19:48.231Z,1009.73
2018-03-08T06:20:48.236Z,1009.74
2018-03-08T06:21:48.252Z,1009.73
2018-03-08T06:22:48.229Z,1009.75
2018-03-08T06:23:48.242Z,1009.75
2018-03-08T06:24:48.244Z,1009.83
2018-03-08T06:25:48.251Z,1009.8
2018-03-08T06:26:48.268Z,1009.79
2018-03-08T06:27:48.246Z,1009.78
2018-03-08T06:28:48.258Z,1009.71
2018-03-08T06:29:48.259Z,1009.72
2018-03-08T06:30:48.265Z,1009.75
2018-03-08T06:31:48.347Z,1009.75
2018-03-08T06:32:48.279Z,1009.76
2018-03-08T06:33:48.280Z,1009.83
2018-03-08T06:34:48.275Z,1009.77
2018-03-08T06:35:48.298Z,1009.74
2018-03-08T06:36:48.287Z,1009.72
2018-03-08T06:37:48.293Z,1009.67
2018-03-08T06:38:48.294Z,1009.67
2018-03-08T06:39:48.305Z,1009.7
2018-03-08T06:40:48.308Z,1009.72
2018-03-08T06:41:48.300Z,1009.7
2018-03-08T06:42:48.353Z,1009.73
2018-03-08T06:43:48.312Z,1009.75
2018-03-08T06:44:48.356Z,1009.75
2018-03-08T06:45:48.310Z,1009.78
2018-03-08T06:46:48.312Z,1009.81
2018-03-08T06:47:48.626Z,1009.77
2018-03-08T06:48:48.327Z,1009.84
2018-03-08T06:49:48.322Z,1009.81
2018-03-08T06:50:48.326Z,1009.86
2018-03-08T06:51:48.328Z,1009.84
2018-03-08T06:52:48.357Z,1009.87
2018-03-08T06:53:48.345Z,1009.86
2018-03-08T06:54:48.346Z,1009.86
2018-03-08T06:55:48.338Z,1009.86
2018-03-08T06:56:48.353Z,1009.92
2018-03-08T06:57:48.354Z,1009.91
2018-03-08T06:58:48.390Z,1009.91
2018-03-08T06:59:48.366Z,1009.92
2018-03-08T07:00:48.373Z,1009.93
2018-03-08T07:01:48.363Z,1009.94
2018-03-08T07:02:48.482Z,1009.97
2018-03-08T07:03:48.366Z,1009.96
2018-03-08T07:04:48.370Z,1009.96
2018-03-08T07:05:48.375Z,1009.94
2018-03-08T07:06:48.369Z,1009.95
2018-03-08T07:07:48.649Z,1009.98
2018-03-08T07:08:48.374Z,1009.96
2018-03-08T07:09:48.435Z,1009.96
2018-03-08T07:10:48.382Z,1009.96
2018-03-08T07:11:48.383Z,1009.95
2018-03-08T07:12:48.412Z,1009.99
2018-03-08T07:13:48.425Z,1009.98
2018-03-08T07:14:48.390Z,1009.99
2018-03-08T07:15:48.473Z,1009.96
2018-03-08T07:16:48.398Z,1010
2018-03-08T07:17:48.448Z,1010
2018-03-08T07:18:48.416Z,1009.97
2018-03-08T07:19:48.420Z,1009.96
2018-03-08T07:20:48.430Z,1009.99
2018-03-08T07:21:48.413Z,1010.02
2018-03-08T07:22:48.416Z,1010.01
2018-03-08T07:23:48.474Z,1009.97
2018-03-08T07:24:48.424Z,1010.03
2018-03-08T07:25:48.432Z,1009.99
2018-03-08T07:26:48.457Z,1010
2018-03-08T07:27:48.436Z,1010.02
2018-03-08T07:28:48.446Z,1010.01
2018-03-08T07:29:48.456Z,1010.04
2018-03-08T07:30:48.447Z,1010.02
2018-03-08T07:31:48.720Z,1010.04
2018-03-08T07:32:48.460Z,1010.02
2018-03-08T07:33:48.476Z,1010.01
2018-03-08T07:34:48.465Z,1010.05
2018-03-08T07:35:48.481Z,1010.1
2018-03-08T07:36:48.512Z,1010.03
2018-03-08T07:37:48.482Z,1010.06
2018-03-08T07:38:48.485Z,1010.08
2018-03-08T07:39:48.496Z,1010.01
2018-03-08T07:40:48.502Z,1010.05
2018-03-08T07:41:48.517Z,1010.01
2018-03-08T07:42:48.500Z,1010.03
2018-03-08T07:43:48.502Z,1010.04
2018-03-08T07:44:48.508Z,1010.07
2018-03-08T07:45:48.508Z,1010.03
2018-03-08T07:46:48.522Z,1010.02
2018-03-08T07:47:48.515Z,1010.02
2018-03-08T07:48:48.537Z,1010.02
2018-03-08T07:49:48.526Z,1010.03
2018-03-08T07:50:48.521Z,1010.08
2018-03-08T07:51:48.617Z,1010.06
2018-03-08T07:52:48.567Z,1010.07
2018-03-08T07:53:48.545Z,1010.06
2018-03-08T07:54:48.543Z,1010.07
2018-03-08T07:55:48.552Z,1010.11
2018-03-08T07:56:48.546Z,1010.06
2018-03-08T07:57:48.579Z,1010.07
2018-03-08T07:58:48.563Z,1010.05
2018-03-08T07:59:48.571Z,1010.05
2018-03-08T08:00:48.572Z,1010.08
2018-03-08T08:01:48.580Z,1010.03
2018-03-08T08:02:48.599Z,1010.02
2018-03-08T08:03:48.580Z,1010.01
2018-03-08T08:04:48.602Z,1009.97
2018-03-08T08:05:48.587Z,1009.98
2018-03-08T08:06:48.593Z,1009.97
2018-03-08T08:07:48.595Z,1009.94
2018-03-08T08:08:48.609Z,1010
2018-03-08T08:09:48.611Z,1010.01
2018-03-08T08:10:48.623Z,1010.02
2018-03-08T08:11:48.627Z,1010.06
2018-03-08T08:12:48.619Z,1010.06
2018-03-08T08:13:48.611Z,1010.11
2018-03-08T08:14:48.618Z,1010.07
2018-03-08T08:15:48.614Z,1010.06
2018-03-08T08:16:48.617Z,1010.03
2018-03-08T08:17:48.630Z,1010.04
2018-03-08T08:18:48.649Z,1010.01
2018-03-08T08:19:48.621Z,1010.07
2018-03-08T08:20:48.630Z,1010.08
2018-03-08T08:21:48.634Z,1010.1
2018-03-08T08:22:48.641Z,1010.07
2018-03-08T08:23:48.923Z,1010.04
2018-03-08T08:24:48.667Z,1010.01
2018-03-08T08:25:48.699Z,1010.01
2018-03-08T08:26:48.759Z,1010.03
2018-03-08T08:27:48.669Z,1010.05
2018-03-08T08:28:48.695Z,1010.05
2018-03-08T08:29:48.674Z,1010.04
2018-03-08T08:30:48.678Z,1010.07
2018-03-08T08:31:48.687Z,1010.04
2018-03-08T08:32:48.670Z,1010.08
2018-03-08T08:33:48.943Z,1010
2018-03-08T08:34:54.672Z,1010.06
2018-03-08T08:35:48.673Z,1010.05
2018-03-08T08:36:48.688Z,1010
2018-03-08T08:37:48.689Z,1010.04
2018-03-08T08:38:48.720Z,1010.04
2018-03-08T08:39:48.683Z,1010.06
2018-03-08T08:40:48.727Z,1010.02
2018-03-08T08:41:48.698Z,1009.99
2018-03-08T08:42:48.690Z,1010.03
2018-03-08T08:43:48.724Z,1010.03
2018-03-08T08:44:48.717Z,1010.02
2018-03-08T08:45:48.700Z,1010
2018-03-08T08:46:48.717Z,1010.03
2018-03-08T08:47:48.711Z,1009.99
2018-03-08T08:48:49.006Z,1010
2018-03-08T08:49:48.730Z,1009.97
2018-03-08T08:50:48.734Z,1010.02
2018-03-08T08:51:48.738Z,1009.99
2018-03-08T08:52:48.740Z,1009.96
2018-03-08T08:53:48.753Z,1009.97
2018-03-08T08:54:48.745Z,1009.97
2018-03-08T08:55:48.743Z,1009.98
2018-03-08T08:56:48.760Z,1010.02
2018-03-08T08:57:48.760Z,1010
2018-03-08T08:58:48.769Z,1010.04
2018-03-08T08:59:48.749Z,1010.04
2018-03-08T09:00:48.786Z,1010
2018-03-08T09:01:48.766Z,1010.01
2018-03-08T09:02:48.772Z,1010.03
2018-03-08T09:03:48.772Z,1010
2018-03-08T09:04:48.789Z,1010.01
2018-03-08T09:05:48.789Z,1009.97
2018-03-08T09:06:48.780Z,1009.94
2018-03-08T09:07:48.787Z,1009.96
2018-03-08T09:08:48.782Z,1009.92
2018-03-08T09:09:48.799Z,1009.95
2018-03-08T09:10:48.799Z,1009.98
2018-03-08T09:11:48.787Z,1009.95
2018-03-08T09:12:48.799Z,1009.95
2018-03-08T09:13:48.829Z,1009.99
2018-03-08T09:14:48.795Z,1009.96
2018-03-08T09:15:48.838Z,1009.95
2018-03-08T09:16:48.802Z,1009.93
2018-03-08T09:17:48.817Z,1009.98
2018-03-08T09:18:48.837Z,1009.91
2018-03-08T09:19:48.822Z,1009.89
2018-03-08T09:20:48.829Z,1009.95
2018-03-08T09:21:48.836Z,1009.89
2018-03-08T09:22:48.844Z,1009.85
2018-03-08T09:23:48.847Z,1009.85
2018-03-08T09:24:48.845Z,1009.83
2018-03-08T09:25:48.837Z,1009.82
2018-03-08T09:26:48.839Z,1009.81
2018-03-08T09:27:48.864Z,1009.84
2018-03-08T09:28:48.843Z,1009.8
2018-03-08T09:29:48.836Z,1009.77
2018-03-08T09:30:48.839Z,1009.75
2018-03-08T09:31:48.846Z,1009.81
2018-03-08T09:32:49.135Z,1009.79
2018-03-08T09:33:48.840Z,1009.73
2018-03-08T09:34:48.847Z,1009.71
2018-03-08T09:35:48.836Z,1009.72
2018-03-08T09:36:48.842Z,1009.71
2018-03-08T09:37:48.875Z,1009.72
2018-03-08T09:38:48.841Z,1009.65
2018-03-08T09:39:48.861Z,1009.69
2018-03-08T09:40:48.846Z,1009.68
2018-03-08T09:41:48.896Z,1009.65
2018-03-08T09:42:48.873Z,1009.67
2018-03-08T09:43:48.916Z,1009.69
2018-03-08T09:44:48.875Z,1009.7
2018-03-08T09:45:48.874Z,1009.66
2018-03-08T09:46:48.891Z,1009.69
2018-03-08T09:47:48.880Z,1009.63
2018-03-08T09:48:48.900Z,1009.64
2018-03-08T09:49:48.881Z,1009.62
2018-03-08T09:50:48.884Z,1009.58
2018-03-08T09:51:48.972Z,1009.63
2018-03-08T09:52:48.889Z,1009.56
2018-03-08T09:53:48.917Z,1009.52
2018-03-08T09:54:48.891Z,1009.47
2018-03-08T09:55:48.897Z,1009.5
2018-03-08T09:56:48.908Z,1009.46
2018-03-08T09:57:48.911Z,1009.42
2018-03-08T09:58:48.930Z,1009.4
2018-03-08T09:59:48.936Z,1009.37
2018-03-08T10:00:48.921Z,1009.33
2018-03-08T10:01:48.932Z,1009.34
2018-03-08T10:02:48.925Z,1009.37
2018-03-08T10:03:48.955Z,1009.31
2018-03-08T10:04:48.935Z,1009.29
2018-03-08T10:05:48.941Z,1009.25
2018-03-08T10:06:48.952Z,1009.27
2018-03-08T10:07:48.992Z,1009.24
2018-03-08T10:08:48.988Z,1009.35
2018-03-08T10:09:48.948Z,1009.29
2018-03-08T10:10:48.977Z,1009.26
2018-03-08T10:11:48.964Z,1009.24
2018-03-08T10:12:49.003Z,1009.18
2018-03-08T10:13:48.982Z,1009.23
2018-03-08T10:14:48.975Z,1009.24
2018-03-08T10:15:48.981Z,1009.28
2018-03-08T10:16:48.978Z,1009.26
2018-03-08T10:17:48.998Z,1009.2
2018-03-08T10:18:48.981Z,1009.29
2018-03-08T10:19:48.989Z,1009.21
2018-03-08T10:20:49.000Z,1009.22
2018-03-08T10:21:48.998Z,1009.14
2018-03-08T10:22:49.056Z,1009.19
2018-03-08T10:23:48.998Z,1009.13
2018-03-08T10:24:49.005Z,1009.21
2018-03-08T10:25:49.000Z,1009.2
2018-03-08T10:26:49.006Z,1009.13
2018-03-08T10:27:49.001Z,1009.18
2018-03-08T10:28:49.011Z,1009.19
2018-03-08T10:29:49.013Z,1009.22
2018-03-08T10:30:49.012Z,1009.22
2018-03-08T10:31:49.014Z,1009.16
2018-03-08T10:32:49.026Z,1009.19
2018-03-08T10:33:49.067Z,1009.15
2018-03-08T10:34:49.064Z,1009.12
2018-03-08T10:35:49.046Z,1009.06
2018-03-08T10:36:49.044Z,1009.08
2018-03-08T10:37:49.033Z,1009.11
2018-03-08T10:38:49.058Z,1009.09
2018-03-08T10:39:49.043Z,1009.13
2018-03-08T10:40:49.032Z,1009.08
2018-03-08T10:41:49.044Z,1009.1
2018-03-08T10:42:49.045Z,1009.04
2018-03-08T10:43:49.072Z,1009
2018-03-08T10:44:49.059Z,1008.97
2018-03-08T10:45:49.062Z,1009.04
2018-03-08T10:46:49.060Z,1009.03
2018-03-08T10:47:49.066Z,1008.99
2018-03-08T10:49:49.073Z,1009.05
2018-03-08T10:50:49.072Z,1008.99
2018-03-08T10:51:49.079Z,1008.97
2018-03-08T10:52:49.083Z,1008.91
2018-03-08T10:53:49.101Z,1008.9
2018-03-08T10:54:49.107Z,1008.89
2018-03-08T10:55:49.116Z,1008.86
2018-03-08T10:56:49.098Z,1008.9
2018-03-08T10:57:49.106Z,1008.88
2018-03-08T10:58:49.098Z,1008.96
2018-03-08T10:59:49.096Z,1008.9
2018-03-08T11:00:49.800Z,1008.97
2018-03-08T11:01:49.091Z,1008.9
2018-03-08T11:02:49.100Z,1008.95
2018-03-08T11:03:49.110Z,1008.9
2018-03-08T11:04:49.129Z,1008.9
2018-03-08T11:05:49.112Z,1008.82
2018-03-08T11:06:49.136Z,1008.86
2018-03-08T11:07:49.126Z,1008.85
2018-03-08T11:08:49.146Z,1008.86
2018-03-08T11:09:49.150Z,1008.83
2018-03-08T11:10:49.135Z,1008.82
2018-03-08T11:11:49.138Z,1008.78
2018-03-08T11:12:49.153Z,1008.75
2018-03-08T11:13:49.136Z,1008.75
2018-03-08T11:14:49.165Z,1008.78
2018-03-08T11:15:49.164Z,1008.76
2018-03-08T11:16:49.153Z,1008.7
2018-03-08T11:17:49.147Z,1008.71
2018-03-08T11:18:49.158Z,1008.72
2018-03-08T11:19:49.182Z,1008.66
2018-03-08T11:20:49.164Z,1008.7
2018-03-08T11:21:49.160Z,1008.7
2018-03-08T11:22:49.168Z,1008.67
2018-03-08T11:23:49.193Z,1008.71
2018-03-08T11:24:49.178Z,1008.72
2018-03-08T11:25:49.180Z,1008.71
2018-03-08T11:26:49.189Z,1008.71
2018-03-08T11:27:49.186Z,1008.68
2018-03-08T11:28:49.197Z,1008.72
2018-03-08T11:29:49.184Z,1008.7
2018-03-08T11:30:49.174Z,1008.72
2018-03-08T11:31:49.175Z,1008.63
2018-03-08T11:32:49.186Z,1008.66
2018-03-08T11:33:49.218Z,1008.69
2018-03-08T11:34:49.205Z,1008.68
2018-03-08T11:36:49.204Z,1008.63
2018-03-08T11:37:49.233Z,1008.63
2018-03-08T11:38:49.209Z,1008.6
2018-03-08T11:39:49.224Z,1008.6
2018-03-08T11:40:49.220Z,1008.58
2018-03-08T11:41:49.226Z,1008.6
2018-03-08T11:42:49.234Z,1008.55
2018-03-08T11:43:49.237Z,1008.57
2018-03-08T11:44:49.536Z,1008.53
2018-03-08T11:45:49.227Z,1008.55
2018-03-08T11:46:49.234Z,1008.56
2018-03-08T11:47:49.230Z,1008.54
2018-03-08T11:48:49.236Z,1008.53
2018-03-08T11:49:49.276Z,1008.55
2018-03-08T11:50:49.242Z,1008.48
2018-03-08T11:51:49.252Z,1008.44
2018-03-08T11:52:49.256Z,1008.46
2018-03-08T11:53:49.258Z,1008.45
2018-03-08T11:54:49.409Z,1008.44
2018-03-08T11:55:49.259Z,1008.45
2018-03-08T11:56:49.269Z,1008.4
2018-03-08T11:57:49.288Z,1008.41
2018-03-08T11:58:49.278Z,1008.32
2018-03-08T11:59:49.288Z,1008.31
2018-03-08T12:00:49.313Z,1008.37
2018-03-08T12:01:49.300Z,1008.29
2018-03-08T12:02:49.305Z,1008.19
2018-03-08T12:03:49.302Z,1008.21
2018-03-08T12:04:49.305Z,1008.17
2018-03-08T12:05:49.310Z,1008.12
2018-03-08T12:06:49.315Z,1008.11
2018-03-08T12:07:49.306Z,1008.03
2018-03-08T12:08:49.305Z,1008.05
2018-03-08T12:09:49.300Z,1007.96
2018-03-08T12:10:49.321Z,1007.93
2018-03-08T12:11:49.320Z,1007.99
2018-03-08T12:12:49.322Z,1007.93